Time;durP1;ratioP1;P1;durP2;ratioP2;P2;SDS_P1;SDS_P2;PMS_P1;PMS_P2;Temp;Humidity;BMP_temperature;BMP_pressure;BME280_temperature;BME280_humidity;BME280_pressure;Samples;Min_cycle;Max_cycle;Signal;HPM_P1;HPM_P2
2023/01/18 00:01:35;;;;;;;;;27.75;24.50;;;;;3.69;100.00;98786.84;5091125;27;45417;-78
2023/01/18 00:04:01;;;;;;;;;22.50;21.00;;;;;3.63;100.00;98789.59;5084764;27;45353;-78
2023/01/18 00:06:26;;;;;;;;;29.00;19.75;;;;;3.47;100.00;98780.88;5085467;27;45416;-77
2023/01/18 00:08:53;;;;;;;;;33.75;21.50;;;;;3.38;100.00;98781.31;5091981;27;45502;-76
2023/01/18 00:11:19;;;;;;;;;27.50;22.25;;;;;3.34;100.00;98776.31;5091920;27;45410;-78
2023/01/18 00:13:44;;;;;;;;;24.50;21.00;;;;;3.36;100.00;98789.66;5073924;27;46871;-80
2023/01/18 00:16:12;;;;;;;;;25.00;18.33;;;;;3.31;100.00;98792.16;5091963;27;45898;-76
2023/01/18 00:18:38;;;;;;;;;22.25;17.25;;;;;3.30;100.00;98793.19;5073081;27;45932;-79
2023/01/18 00:21:06;;;;;;;;;23.75;22.50;;;;;3.27;100.00;98802.56;5074101;27;47286;-77
2023/01/18 00:23:32;;;;;;;;;22.25;17.50;;;;;3.22;100.00;98799.66;5072916;27;47669;-76
2023/01/18 00:26:02;;;;;;;;;27.50;22.75;;;;;3.18;100.00;98804.66;5094056;27;45602;-78
2023/01/18 00:28:28;;;;;;;;;18.75;13.25;;;;;3.09;100.00;98788.84;5063247;27;46050;-78
2023/01/18 00:30:54;;;;;;;;;24.00;22.50;;;;;3.12;100.00;98810.09;5095663;27;45584;-78
2023/01/18 00:33:19;;;;;;;;;23.50;19.50;;;;;3.09;100.00;98805.91;5094887;27;45471;-77
2023/01/18 00:35:57;;;;;;;;;29.00;25.75;;;;;3.04;100.00;98807.56;5096010;27;45425;-79
2023/01/18 00:38:23;;;;;;;;;27.25;21.00;;;;;3.00;100.00;98805.28;5089955;27;45433;-80
2023/01/18 00:40:48;;;;;;;;;30.00;25.75;;;;;2.99;100.00;98811.75;5085025;27;45864;-78
2023/01/18 00:45:57;;;;;;;;;26.25;20.75;;;;;2.96;100.00;98823.00;5090439;27;45763;-78
2023/01/18 00:48:22;;;;;;;;;25.50;22.75;;;;;2.77;100.00;98807.53;5086899;27;45311;-77
2023/01/18 00:50:48;;;;;;;;;22.50;20.25;;;;;2.91;100.00;98836.31;5094860;27;45434;-77
2023/01/18 00:53:13;;;;;;;;;23.50;18.00;;;;;2.86;100.00;98829.84;5091119;27;45360;-76
2023/01/18 00:55:39;;;;;;;;;31.50;25.00;;;;;2.83;100.00;98825.69;5079080;27;45417;-76
2023/01/18 00:58:04;;;;;;;;;30.75;23.25;;;;;2.63;100.00;98807.56;5075848;27;45547;-77
2023/01/18 01:00:30;;;;;;;;;29.00;25.75;;;;;2.73;100.00;98836.09;5094431;27;45631;-76
2023/01/18 01:02:57;;;;;;;;;28.50;25.25;;;;;2.74;100.00;98845.84;5094561;27;45951;-78
2023/01/18 01:08:16;;;;;;;;;25.75;23.25;;;;;2.71;100.00;98854.38;5092367;27;45773;-77
2023/01/18 01:10:46;;;;;;;;;28.25;22.25;;;;;2.62;100.00;98849.19;5088141;27;45466;-79
2023/01/18 01:27:06;;;;;;;;;26.50;22.50;;;;;2.40;100.00;98855.78;5075778;27;45310;-77
2023/01/18 01:29:32;;;;;;;;;26.50;22.00;;;;;2.49;100.00;98870.78;5066976;27;45911;-77
2023/01/18 01:31:57;;;;;;;;;23.75;20.25;;;;;2.47;100.00;98878.28;5092883;27;45516;-77
2023/01/18 01:34:23;;;;;;;;;24.00;18.75;;;;;2.49;100.00;98878.06;5093355;27;45475;-77
2023/01/18 01:36:49;;;;;;;;;26.00;21.00;;;;;2.49;100.00;98880.78;5092052;27;45434;-76
2023/01/18 01:39:16;;;;;;;;;25.75;19.75;;;;;2.46;100.00;98887.41;5096434;27;45839;-77
2023/01/18 01:41:41;;;;;;;;;18.25;14.75;;;;;2.45;100.00;98877.63;5066681;27;46034;-77
2023/01/18 01:44:16;;;;;;;;;24.00;23.00;;;;;2.50;100.00;98885.13;5089797;27;45594;-78
2023/01/18 01:46:55;;;;;;;;;21.25;19.25;;;;;2.47;100.00;98899.91;5087445;27;45450;-75
2023/01/18 01:49:31;;;;;;;;;27.25;22.25;;;;;2.45;100.00;98893.84;5072547;27;45900;-76
2023/01/18 01:52:02;;;;;;;;;25.25;24.50;;;;;2.43;100.00;98904.06;5077938;27;46336;-76
2023/01/18 01:54:27;;;;;;;;;25.50;19.50;;;;;2.46;100.00;98904.47;5092933;27;45448;-77
2023/01/18 01:57:00;;;;;;;;;24.00;17.50;;;;;2.44;100.00;98913.81;5079838;27;45812;-77
2023/01/18 01:59:25;;;;;;;;;25.50;19.75;;;;;2.44;100.00;98908.41;5089283;27;45453;-76
2023/01/18 02:01:51;;;;;;;;;24.50;24.50;;;;;2.44;100.00;98906.56;5082735;27;45947;-77
2023/01/18 02:04:17;;;;;;;;;25.75;22.25;;;;;2.39;100.00;98902.78;5092291;27;46396;-76
2023/01/18 02:06:42;;;;;;;;;24.00;18.00;;;;;2.43;100.00;98915.69;5090167;27;46363;-76
2023/01/18 02:09:12;;;;;;;;;22.50;20.75;;;;;2.42;100.00;98919.44;5089782;27;45976;-75
2023/01/18 02:11:40;;;;;;;;;21.75;19.50;;;;;2.43;100.00;98914.88;5073415;27;46574;-76
2023/01/18 02:14:11;;;;;;;;;20.50;18.00;;;;;2.33;100.00;98903.59;5064602;27;46052;-77
2023/01/18 02:17:07;;;;;;;;;18.75;17.75;;;;;2.42;100.00;98918.63;5091734;27;45892;-77
2023/01/18 02:20:06;;;;;;;;;30.75;23.25;;;;;2.22;100.00;98892.31;5080848;27;45494;-77
2023/01/18 02:22:46;;;;;;;;;21.75;18.50;;;;;2.35;100.00;98923.16;5091878;27;45935;-77
2023/01/18 02:25:30;;;;;;;;;18.25;18.25;;;;;2.33;100.00;98930.63;5092117;27;45765;-77
2023/01/18 02:28:20;;;;;;;;;26.25;22.00;;;;;2.34;100.00;98938.56;5094405;27;45690;-76
2023/01/18 02:31:12;;;;;;;;;17.50;15.00;;;;;2.32;100.00;98932.53;5099658;27;45740;-78
2023/01/18 02:34:05;;;;;;;;;23.00;18.00;;;;;2.34;100.00;98935.03;5105434;27;45748;-78
2023/01/18 02:36:43;;;;;;;;;18.00;15.50;;;;;2.21;100.00;98916.84;5077625;27;48078;-77
2023/01/18 02:39:31;;;;;;;;;23.50;20.75;;;;;2.33;100.00;98938.75;5083119;27;45706;-76
2023/01/18 02:47:37;;;;;;;;;21.00;19.75;;;;;2.28;100.00;98940.19;5090644;27;45856;-74
2023/01/18 02:50:03;;;;;;;;;25.50;21.25;;;;;2.23;100.00;98939.09;5082611;27;45694;-76
2023/01/18 02:52:48;;;;;;;;;26.50;20.25;;;;;2.27;100.00;98952.03;5086941;27;45566;-76
2023/01/18 02:55:30;;;;;;;;;30.75;23.75;;;;;2.27;100.00;98957.44;5074539;27;45904;-77
2023/01/18 02:58:03;;;;;;;;;28.00;21.00;;;;;2.11;100.00;98946.94;5094108;27;45779;-75
2023/01/18 03:00:33;;;;;;;;;24.00;19.25;;;;;2.12;100.00;98951.31;5091130;27;45765;-75
2023/01/18 03:03:00;;;;;;;;;29.75;24.75;;;;;2.19;100.00;98970.31;5090280;27;45919;-76
2023/01/18 03:05:28;;;;;;;;;23.75;19.25;;;;;2.17;100.00;98969.66;5090496;27;45924;-77
2023/01/18 03:08:03;;;;;;;;;24.50;23.00;;;;;2.08;100.00;98961.72;5068549;27;47434;-77
2023/01/18 03:10:30;;;;;;;;;24.50;20.50;;;;;2.09;100.00;98976.06;5090766;27;45374;-77
2023/01/18 03:13:08;;;;;;;;;22.50;22.25;;;;;2.08;100.00;98982.50;5081222;27;45754;-78
2023/01/18 03:16:01;;;;;;;;;23.00;22.00;;;;;2.02;100.00;98981.44;5071979;27;47174;-73
2023/01/18 03:19:00;;;;;;;;;21.75;18.00;;;;;2.00;100.00;98974.53;5082536;27;45653;-74
2023/01/18 03:21:36;;;;;;;;;25.25;22.50;;;;;2.02;100.00;98988.69;5066068;27;45957;-74
2023/01/18 03:24:05;;;;;;;;;36.75;26.75;;;;;1.94;100.00;98981.56;5071001;27;45698;-73
2023/01/18 03:26:37;;;;;;;;;33.00;27.25;;;;;2.00;100.00;98996.16;5090794;27;45834;-74
2023/01/18 03:35:07;;;;;;;;;26.75;21.75;;;;;1.89;100.00;99000.25;5093305;27;45497;-73
2023/01/18 03:37:40;;;;;;;;;31.25;22.50;;;;;1.86;100.00;98996.06;5110098;27;45503;-73
2023/01/18 03:40:06;;;;;;;;;29.25;21.75;;;;;1.91;100.00;98999.00;5096356;27;45879;-74
2023/01/18 03:42:39;;;;;;;;;32.00;26.50;;;;;1.91;100.00;99001.72;5110582;27;46649;-73
2023/01/18 03:45:14;;;;;;;;;30.25;22.75;;;;;1.91;100.00;99001.72;5107718;27;45393;-74
2023/01/18 03:47:40;;;;;;;;;27.25;20.75;;;;;1.91;100.00;99014.41;5096148;27;45911;-73
2023/01/18 03:50:06;;;;;;;;;27.50;24.75;;;;;1.90;100.00;99021.69;5071614;27;46203;-73
2023/01/18 03:52:38;;;;;;;;;27.25;26.50;;;;;1.91;100.00;99026.03;5090521;27;45767;-75
2023/01/18 03:55:13;;;;;;;;;32.25;23.25;;;;;1.93;100.00;99025.84;5072176;27;45495;-73
2023/01/18 03:57:52;;;;;;;;;35.75;26.00;;;;;1.93;100.00;99037.50;5082179;27;46404;-74
2023/01/18 04:00:18;;;;;;;;;36.00;29.50;;;;;1.88;100.00;99037.25;5091996;27;45702;-74
2023/01/18 04:02:46;;;;;;;;;34.25;30.75;;;;;1.92;100.00;99043.94;5094337;27;45392;-74
2023/01/18 04:05:11;;;;;;;;;29.00;24.50;;;;;1.88;100.00;99048.06;5089481;27;45833;-75
2023/01/18 04:07:37;;;;;;;;;30.75;25.50;;;;;1.86;100.00;99050.13;5092424;27;45617;-74
2023/01/18 04:10:02;;;;;;;;;27.75;24.00;;;;;1.88;100.00;99052.63;5094017;27;45479;-75
2023/01/18 04:12:30;;;;;;;;;26.25;22.50;;;;;1.84;100.00;99056.75;5094171;27;45574;-74
2023/01/18 04:14:56;;;;;;;;;32.25;26.75;;;;;1.82;100.00;99054.25;5096073;27;45505;-74
2023/01/18 04:17:22;;;;;;;;;28.50;24.75;;;;;1.80;100.00;99060.88;5091234;27;45712;-74
2023/01/18 04:19:47;;;;;;;;;33.75;28.75;;;;;1.79;100.00;99061.91;5082878;27;48035;-73
2023/01/18 04:22:13;;;;;;;;;33.50;25.50;;;;;1.74;100.00;99051.69;5090736;27;45742;-72
2023/01/18 04:24:38;;;;;;;;;26.25;24.25;;;;;1.80;100.00;99075.22;5073388;27;45686;-72
2023/01/18 04:27:04;;;;;;;;;25.25;23.75;;;;;1.74;100.00;99074.13;5086834;27;45578;-73
2023/01/18 04:29:29;;;;;;;;;24.25;20.50;;;;;1.74;100.00;99084.13;5100145;27;45873;-74
2023/01/18 04:31:55;;;;;;;;;22.50;18.75;;;;;1.72;100.00;99086.16;5067585;27;45586;-72
2023/01/18 04:34:21;;;;;;;;;27.75;24.50;;;;;1.71;100.00;99084.50;5090583;27;45822;-72
2023/01/18 04:36:47;;;;;;;;;27.25;27.00;;;;;1.65;100.00;99079.88;5080137;27;45876;-73
2023/01/18 04:39:13;;;;;;;;;32.50;26.50;;;;;1.75;100.00;99089.31;5062766;28;45486;-74
2023/01/18 04:41:39;;;;;;;;;29.75;27.50;;;;;1.75;100.00;99080.38;5072739;28;45739;-76
2023/01/18 04:44:04;;;;;;;;;25.00;21.75;;;;;1.73;100.00;99082.44;5074248;28;45812;-77
2023/01/18 04:46:30;;;;;;;;;28.75;21.00;;;;;1.65;100.00;99077.16;5055049;28;45591;-79
2023/01/18 04:48:55;;;;;;;;;34.00;26.50;;;;;1.73;100.00;99090.53;5054029;28;46768;-78
2023/01/18 04:51:22;;;;;;;;;30.25;24.50;;;;;1.66;100.00;99070.72;5072547;28;45856;-71
2023/01/18 04:53:49;;;;;;;;;30.00;25.00;;;;;1.76;100.00;99082.03;5051804;28;45505;-72
2023/01/18 04:56:15;;;;;;;;;28.50;22.00;;;;;1.82;100.00;99096.66;5068264;28;45830;-72
2023/01/18 04:58:41;;;;;;;;;28.50;21.00;;;;;1.77;100.00;99083.72;5043294;28;45799;-72
2023/01/18 05:01:08;;;;;;;;;31.75;26.75;;;;;1.84;100.00;99090.03;5059222;28;45472;-72
2023/01/18 05:03:37;;;;;;;;;29.25;27.25;;;;;1.92;100.00;99097.19;5055802;28;45779;-72
2023/01/18 05:06:05;;;;;;;;;31.25;24.00;;;;;1.91;100.00;99100.91;5057869;28;45878;-70
2023/01/18 05:08:31;;;;;;;;;23.75;19.00;;;;;1.91;100.00;99109.00;5052132;28;46888;-71
2023/01/18 05:11:04;;;;;;;;;24.75;19.50;;;;;1.90;100.00;99102.78;5055366;28;45873;-71
2023/01/18 05:13:30;;;;;;;;;34.25;22.50;;;;;1.92;100.00;99108.00;5064857;28;45420;-72
2023/01/18 05:15:57;;;;;;;;;23.00;21.25;;;;;1.86;100.00;99101.47;5071356;28;45826;-72
2023/01/18 05:18:22;;;;;;;;;22.25;19.25;;;;;1.89;100.00;99109.19;5068137;28;45415;-71
2023/01/18 05:20:47;;;;;;;;;31.25;28.00;;;;;1.85;100.00;99115.19;5061464;28;45770;-70
2023/01/18 05:23:13;;;;;;;;;33.00;25.25;;;;;1.83;100.00;99122.66;5056207;28;45903;-71
2023/01/18 05:25:39;;;;;;;;;33.25;25.75;;;;;1.82;100.00;99124.50;5069885;28;47159;-69
2023/01/18 05:28:05;;;;;;;;;23.50;21.75;;;;;1.81;100.00;99119.31;5061058;28;45469;-70
2023/01/18 05:30:31;;;;;;;;;24.00;20.50;;;;;1.79;100.00;99127.59;5068649;28;45757;-70
2023/01/18 05:32:56;;;;;;;;;27.00;23.75;;;;;1.76;100.00;99130.69;5071057;28;45819;-72
2023/01/18 05:35:22;;;;;;;;;27.75;21.00;;;;;1.73;100.00;99131.06;5055439;28;45798;-71
2023/01/18 05:37:47;;;;;;;;;31.00;22.25;;;;;1.70;100.00;99151.22;5058138;27;48287;-71
2023/01/18 05:40:13;;;;;;;;;25.75;22.00;;;;;1.66;100.00;99149.06;5070395;27;45880;-71
2023/01/18 05:42:39;;;;;;;;;28.75;24.00;;;;;1.66;100.00;99151.78;5076304;27;45577;-73
2023/01/18 05:45:05;;;;;;;;;25.75;22.75;;;;;1.61;100.00;99159.63;5064674;27;45899;-71
2023/01/18 05:47:31;;;;;;;;;22.50;18.75;;;;;1.57;100.00;99161.84;5072689;27;47089;-72
2023/01/18 05:49:58;;;;;;;;;29.00;21.50;;;;;1.53;100.00;99166.00;5071190;27;45429;-75
2023/01/18 05:52:24;;;;;;;;;24.75;22.75;;;;;1.34;100.00;99141.22;5066703;27;45420;-72
2023/01/18 05:54:49;;;;;;;;;24.00;18.25;;;;;1.50;100.00;99166.38;5077138;27;45558;-74
2023/01/18 05:57:15;;;;;;;;;33.50;26.50;;;;;1.47;100.00;99170.28;5076002;27;47726;-75
2023/01/18 05:59:40;;;;;;;;;31.50;25.50;;;;;1.43;100.00;99168.16;5073381;27;45686;-73
2023/01/18 06:02:05;;;;;;;;;26.75;25.25;;;;;1.38;100.00;99171.41;5069451;27;45397;-76
2023/01/18 06:04:31;;;;;;;;;27.00;24.00;;;;;1.44;100.00;99184.16;5069567;27;45938;-76
2023/01/18 06:06:56;;;;;;;;;23.25;17.50;;;;;1.39;100.00;99186.56;5070565;27;45773;-76
2023/01/18 06:09:21;;;;;;;;;26.50;23.50;;;;;1.35;100.00;99193.41;5078111;27;45551;-73
2023/01/18 06:11:47;;;;;;;;;30.75;22.00;;;;;1.38;100.00;99199.25;5072393;27;45877;-76
2023/01/18 06:14:13;;;;;;;;;26.50;20.25;;;;;1.36;100.00;99212.13;5068567;27;45512;-73
2023/01/18 06:16:38;;;;;;;;;30.50;24.25;;;;;1.36;100.00;99205.84;5075178;27;46885;-76
2023/01/18 06:19:04;;;;;;;;;19.50;19.50;;;;;1.27;100.00;99193.47;5078275;27;45887;-76
2023/01/18 06:21:30;;;;;;;;;27.00;23.00;;;;;1.40;100.00;99215.28;5068991;27;45858;-71
2023/01/18 06:23:56;;;;;;;;;26.00;23.50;;;;;1.30;100.00;99207.44;5067602;27;45482;-72
2023/01/18 06:26:22;;;;;;;;;28.50;22.50;;;;;1.33;100.00;99212.50;5070216;27;46934;-74
2023/01/18 06:28:48;;;;;;;;;29.25;26.00;;;;;1.37;100.00;99223.75;5070364;27;45756;-73
2023/01/18 06:31:13;;;;;;;;;26.75;23.50;;;;;1.33;100.00;99225.13;5059996;27;46988;-73
2023/01/18 06:33:39;;;;;;;;;28.25;25.50;;;;;1.28;100.00;99235.69;5066130;27;45814;-72
2023/01/18 06:36:05;;;;;;;;;29.25;26.25;;;;;1.30;100.00;99244.41;5064837;27;48201;-74
2023/01/18 06:38:30;;;;;;;;;30.00;27.50;;;;;1.31;100.00;99246.94;5066860;27;45872;-74
2023/01/18 06:40:56;;;;;;;;;30.00;25.25;;;;;1.31;100.00;99251.50;5073506;27;45629;-75
2023/01/18 06:43:22;;;;;;;;;25.00;22.25;;;;;1.32;100.00;99250.50;5077199;27;45975;-74
2023/01/18 06:45:52;;;;;;;;;26.75;23.50;;;;;1.30;100.00;99253.34;5073265;27;45716;-81
2023/01/18 06:48:18;;;;;;;;;36.50;27.00;;;;;1.19;100.00;99229.53;5068108;27;45628;-80
2023/01/18 06:50:43;;;;;;;;;35.25;30.00;;;;;1.22;100.00;99242.66;5074687;27;45748;-80
2023/01/18 06:53:09;;;;;;;;;29.75;26.00;;;;;1.29;100.00;99264.34;5063341;27;45855;-81
2023/01/18 06:55:34;;;;;;;;;36.00;29.75;;;;;1.30;100.00;99266.03;5072533;27;46516;-80
2023/01/18 06:58:01;;;;;;;;;26.75;23.75;;;;;1.32;100.00;99270.22;5071581;28;46072;-81
2023/01/18 07:00:27;;;;;;;;;32.00;30.25;;;;;1.29;100.00;99270.59;5072548;27;45766;-79
2023/01/18 07:02:53;;;;;;;;;32.75;24.50;;;;;1.17;100.00;99251.31;5064312;27;45970;-80
2023/01/18 07:05:19;;;;;;;;;33.25;24.75;;;;;1.14;100.00;99245.41;5068420;27;46122;-80
2023/01/18 07:07:45;;;;;;;;;31.25;21.00;;;;;1.28;100.00;99268.09;5070437;27;45682;-80
2023/01/18 07:10:11;;;;;;;;;34.50;24.75;;;;;1.29;100.00;99283.25;5078389;27;45511;-81
2023/01/18 07:12:36;;;;;;;;;27.00;21.25;;;;;1.19;100.00;99281.66;5069520;27;46676;-82
2023/01/18 07:15:04;;;;;;;;;30.25;26.75;;;;;1.27;100.00;99296.09;5071327;27;45430;-80
2023/01/18 07:17:30;;;;;;;;;39.50;30.25;;;;;1.29;100.00;99299.44;5067567;27;45825;-79
2023/01/18 07:19:56;;;;;;;;;30.50;27.25;;;;;1.27;100.00;99302.34;5069272;27;45837;-84
2023/01/18 07:22:22;;;;;;;;;30.50;28.25;;;;;1.19;100.00;99291.63;5069277;27;45452;-82
2023/01/18 07:24:47;;;;;;;;;30.25;25.50;;;;;1.27;100.00;99315.00;5074334;27;45762;-81
2023/01/18 07:27:13;;;;;;;;;33.00;29.00;;;;;1.26;100.00;99307.91;5074587;27;45913;-82
2023/01/18 07:29:38;;;;;;;;;31.75;27.50;;;;;1.25;100.00;99317.91;5075303;27;45859;-84
2023/01/18 07:32:04;;;;;;;;;37.00;34.25;;;;;1.23;100.00;99320.78;5067932;27;45461;-82
2023/01/18 07:34:29;;;;;;;;;35.00;27.50;;;;;1.23;100.00;99326.19;5072243;28;45534;-81
2023/01/18 07:36:55;;;;;;;;;36.00;26.75;;;;;1.07;100.00;99299.34;5069136;27;45851;-80
2023/01/18 07:39:20;;;;;;;;;40.00;29.00;;;;;1.24;100.00;99332.41;5063464;27;45528;-79
2023/01/18 07:41:46;;;;;;;;;34.00;25.75;;;;;1.23;100.00;99328.88;5067100;27;45690;-80
2023/01/18 07:44:12;;;;;;;;;33.25;28.00;;;;;1.32;100.00;99340.44;5063441;27;45899;-80
2023/01/18 07:46:38;;;;;;;;;34.00;29.75;;;;;1.34;100.00;99342.97;5059496;27;45697;-80
2023/01/18 07:49:04;;;;;;;;;37.75;30.25;;;;;1.28;100.00;99338.31;5050017;28;45786;-80
2023/01/18 07:51:31;;;;;;;;;42.50;34.50;;;;;1.40;100.00;99347.63;5072935;27;45568;-80
2023/01/18 07:53:56;;;;;;;;;35.25;25.50;;;;;1.41;100.00;99363.66;5066303;28;46696;-82
2023/01/18 07:56:24;;;;;;;;;28.50;20.75;;;;;1.34;100.00;99348.38;5067033;28;46907;-80
2023/01/18 07:58:50;;;;;;;;;36.75;28.75;;;;;1.52;100.00;99373.16;5057133;27;45816;-79
2023/01/18 08:01:19;;;;;;;;;35.75;26.75;;;;;1.54;100.00;99367.56;5052143;28;46293;-80
2023/01/18 08:03:48;;;;;;;;;35.75;26.75;;;;;1.53;100.00;99358.63;5067905;27;46273;-80
2023/01/18 08:06:18;;;;;;;;;38.00;27.75;;;;;1.48;100.00;99347.56;5061408;28;45920;-81
2023/01/18 08:08:44;;;;;;;;;38.00;27.25;;;;;1.67;100.00;99375.06;5048623;28;45703;-81
2023/01/18 08:11:10;;;;;;;;;30.00;24.25;;;;;1.69;100.00;99378.41;5057287;28;45417;-80
2023/01/18 08:13:36;;;;;;;;;33.50;29.00;;;;;1.58;100.00;99356.22;5059856;27;46535;-82
2023/01/18 08:16:04;;;;;;;;;33.25;29.25;;;;;1.75;100.00;99383.06;5037420;28;45908;-81
2023/01/18 08:18:30;;;;;;;;;41.25;33.00;;;;;1.75;100.00;99375.81;5062751;27;45970;-82
2023/01/18 08:20:55;;;;;;;;;30.50;24.50;;;;;1.88;100.00;99388.66;5068509;28;45394;-82
2023/01/18 08:23:21;;;;;;;;;31.25;26.50;;;;;1.80;100.00;99366.28;5049317;28;47203;-81
2023/01/18 08:25:47;;;;;;;;;34.50;28.75;;;;;1.94;100.00;99389.78;5051463;28;46028;-81
2023/01/18 08:28:13;;;;;;;;;26.75;21.75;;;;;2.02;100.00;99399.66;5068309;28;45498;-83
2023/01/18 08:30:41;;;;;;;;;35.75;27.75;;;;;2.07;100.00;99400.78;5078917;27;46028;-79
2023/01/18 08:33:07;;;;;;;;;41.50;31.25;;;;;2.12;100.00;99392.13;5074052;27;45781;-81
2023/01/18 08:35:39;;;;;;;;;37.75;31.75;;;;;2.19;100.00;99387.63;5069802;27;45528;-83
2023/01/18 08:38:05;;;;;;;;;40.00;34.25;;;;;2.21;100.00;99392.84;5080155;27;45679;-83
2023/01/18 08:40:31;;;;;;;;;30.50;30.50;;;;;2.29;100.00;99396.31;5067974;27;45852;-82
2023/01/18 08:43:01;;;;;;;;;39.25;35.75;;;;;2.42;100.00;99411.00;5075482;27;46046;-81
2023/01/18 08:45:28;;;;;;;;;38.00;29.00;;;;;2.42;100.00;99409.13;5079109;27;45731;-82
2023/01/18 08:48:03;;;;;;;;;42.75;30.75;;;;;2.54;100.00;99419.50;5087937;27;45703;-81
2023/01/18 08:50:30;;;;;;;;;37.50;30.00;;;;;2.57;100.00;99417.22;5082335;27;45869;-82
2023/01/18 08:52:58;;;;;;;;;41.00;33.25;;;;;2.62;100.00;99424.78;5068932;27;45414;-83
2023/01/18 08:55:29;;;;;;;;;37.00;35.25;;;;;2.72;100.00;99421.78;5065541;27;45839;-84
2023/01/18 08:57:56;;;;;;;;;41.75;34.50;;;;;2.73;100.00;99424.31;5075205;27;45835;-82
2023/01/18 09:00:23;;;;;;;;;46.00;39.00;;;;;2.88;100.00;99443.22;5081510;27;45671;-82
2023/01/18 09:02:48;;;;;;;;;33.00;27.75;;;;;3.17;100.00;99442.28;5061707;27;45451;-80
2023/01/18 09:05:14;;;;;;;;;36.00;30.00;;;;;4.10;100.00;99456.78;5073753;27;45755;-82
2023/01/18 09:07:39;;;;;;;;;29.75;27.00;;;;;5.14;100.00;99453.09;5087654;27;45655;-82
2023/01/18 09:10:07;;;;;;;;;36.50;31.50;;;;;6.24;100.00;99462.78;5073362;27;45894;-80
2023/01/18 09:12:34;;;;;;;;;33.75;31.50;;;;;7.24;100.00;99474.16;5079128;27;46508;-83
2023/01/18 09:14:59;;;;;;;;;30.75;25.75;;;;;8.02;100.00;99468.53;5074792;27;44750;-81
2023/01/18 09:17:25;;;;;;;;;34.00;31.00;;;;;8.90;100.00;99475.59;5064837;27;45489;-83
2023/01/18 09:19:53;;;;;;;;;35.00;30.00;;;;;9.60;100.00;99482.44;5083187;27;45361;-81
2023/01/18 09:22:19;;;;;;;;;36.00;28.33;;;;;10.34;100.00;99481.25;5079998;27;47161;-82
2023/01/18 09:24:45;;;;;;;;;27.67;24.33;;;;;10.93;100.00;99492.16;5076128;27;45443;-81
2023/01/18 09:27:10;;;;;;;;;30.00;27.67;;;;;11.42;100.00;99481.63;5073345;27;45519;-82
2023/01/18 09:29:36;;;;;;;;;42.00;30.33;;;;;11.78;100.00;99474.03;5070477;27;45813;-80
2023/01/18 09:32:01;;;;;;;;;29.67;23.00;;;;;12.22;100.00;99476.13;5069570;27;45762;-83
2023/01/18 09:34:27;;;;;;;;;26.33;23.00;;;;;12.51;100.00;99478.75;5065005;27;45843;-83
2023/01/18 09:36:52;;;;;;;;;23.00;22.67;;;;;12.81;100.00;99483.84;5079100;27;45844;-81
2023/01/18 09:39:23;;;;;;;;;26.00;23.67;;;;;13.03;100.00;99483.03;5095177;27;45800;-82
2023/01/18 09:41:57;;;;;;;;;28.00;22.33;;;;;13.23;100.00;99482.41;5075513;27;46935;-83
2023/01/18 09:44:41;;;;;;;;;25.33;21.00;;;;;13.56;100.00;99480.59;5063441;27;45802;-83
2023/01/18 09:47:24;;;;;;;;;29.00;23.33;;;;;13.88;99.24;99497.19;5087258;27;45942;-81
2023/01/18 09:49:55;;;;;;;;;27.33;19.00;;;;;14.12;94.29;99497.66;5074809;27;46488;-81
2023/01/18 09:52:32;;;;;;;;;23.33;23.33;;;;;14.42;93.75;99503.69;5064962;27;46846;-83
2023/01/18 09:55:32;;;;;;;;;22.00;20.67;;;;;14.53;91.28;99505.41;5075226;27;45780;-83
2023/01/18 09:58:12;;;;;;;;;25.67;23.00;;;;;14.68;89.84;99521.25;5082409;27;45347;-83
2023/01/18 10:00:45;;;;;;;;;18.33;17.67;;;;;14.76;90.15;99525.44;5104201;27;45777;-80
2023/01/18 10:03:46;;;;;;;;;25.67;21.67;;;;;15.01;87.96;99524.75;5093919;27;45896;-82
2023/01/18 10:06:22;;;;;;;;;27.00;25.33;;;;;15.14;86.22;99518.75;5073920;27;45512;-83
2023/01/18 10:08:47;;;;;;;;;25.67;24.00;;;;;15.23;83.45;99516.28;5077194;27;45500;-84
2023/01/18 10:11:46;;;;;;;;;18.33;18.33;;;;;15.22;83.14;99525.69;5088899;27;46245;-83
2023/01/18 10:14:47;;;;;;;;;22.00;17.67;;;;;15.18;83.75;99519.06;5091692;27;46392;-84
2023/01/18 10:17:16;;;;;;;;;18.00;17.33;;;;;15.12;81.51;99522.88;5080427;27;45445;-81
2023/01/18 10:19:42;;;;;;;;;19.00;18.00;;;;;15.09;82.45;99538.06;5075642;27;45473;-83
2023/01/18 10:22:20;;;;;;;;;17.33;15.33;;;;;15.16;81.46;99529.53;5092489;27;46092;-82
2023/01/18 10:24:56;;;;;;;;;15.67;14.33;;;;;15.35;81.35;99538.16;5102115;27;45713;-83
2023/01/18 10:27:59;;;;;;;;;12.67;12.33;;;;;15.29;81.40;99537.31;5089595;27;45474;-83
2023/01/18 10:30:44;;;;;;;;;18.00;16.33;;;;;15.32;81.74;99541.47;5091545;27;45847;-85
2023/01/18 10:33:21;;;;;;;;;17.67;16.00;;;;;15.20;82.04;99533.41;5095137;27;45504;-80
2023/01/18 10:36:09;;;;;;;;;15.67;15.00;;;;;15.18;80.09;99547.50;5076001;27;45625;-80
2023/01/18 10:38:36;;;;;;;;;11.67;11.00;;;;;15.00;81.56;99545.19;5092053;27;45891;-81
2023/01/18 10:41:02;;;;;;;;;10.67;10.67;;;;;14.80;80.54;99545.91;5095224;27;45814;-82
2023/01/18 10:43:30;;;;;;;;;14.00;13.33;;;;;14.58;79.94;99549.59;5090178;27;45745;-83
2023/01/18 10:45:56;;;;;;;;;8.67;8.00;;;;;14.38;83.33;99543.91;5072270;27;46884;-82
2023/01/18 10:48:30;;;;;;;;;13.00;11.67;;;;;14.09;81.40;99535.97;5098462;27;45521;-85
2023/01/18 10:51:01;;;;;;;;;13.67;10.67;;;;;13.77;80.15;99536.75;5107670;27;45425;-82
2023/01/18 10:53:36;;;;;;;;;13.33;9.67;;;;;13.72;83.42;99540.28;5102911;27;45552;-83
2023/01/18 10:56:23;;;;;;;;;12.33;11.33;;;;;13.52;82.35;99537.31;5081555;27;46198;-83
2023/01/18 10:58:56;;;;;;;;;15.67;11.67;;;;;13.39;83.55;99542.13;5095576;27;45800;-81
2023/01/18 11:01:51;;;;;;;;;14.67;12.33;;;;;13.21;83.82;99529.47;5086313;27;45791;-83
2023/01/18 11:04:32;;;;;;;;;15.33;10.00;;;;;13.14;85.25;99531.59;5081575;27;45597;-83
2023/01/18 11:07:03;;;;;;;;;9.00;8.00;;;;;12.98;84.34;99529.72;5094945;27;46594;-82
2023/01/18 11:09:38;;;;;;;;;10.00;9.00;;;;;12.76;84.16;99535.22;5080883;27;45457;-81
2023/01/18 11:12:37;;;;;;;;;11.33;9.00;;;;;12.56;85.14;99535.75;5100721;27;45745;-82
2023/01/18 11:15:12;;;;;;;;;9.00;8.00;;;;;12.19;86.15;99535.19;5102688;27;46167;-81
2023/01/18 11:17:37;;;;;;;;;10.00;8.67;;;;;12.02;88.43;99534.34;5086069;27;45892;-81
2023/01/18 11:20:14;;;;;;;;;8.67;6.67;;;;;11.68;87.41;99517.78;5096093;27;45363;-82
2023/01/18 11:22:53;;;;;;;;;11.00;7.33;;;;;11.47;88.24;99531.13;5071839;27;45781;-82
2023/01/18 11:25:19;;;;;;;;;9.00;7.67;;;;;11.28;90.24;99529.63;5074600;27;46570;-81
2023/01/18 11:27:46;;;;;;;;;5.00;5.00;;;;;11.07;90.86;99528.38;5079464;27;47249;-81
2023/01/18 11:30:20;;;;;;;;;11.33;9.00;;;;;10.91;90.87;99538.19;5093887;27;45545;-83
2023/01/18 11:32:46;;;;;;;;;8.33;7.67;;;;;10.65;91.87;99521.16;5092066;27;45790;-82
2023/01/18 11:35:31;;;;;;;;;10.00;6.00;;;;;10.56;93.88;99531.66;5070233;27;45708;-82
2023/01/18 11:38:02;;;;;;;;;12.00;8.67;;;;;10.36;94.97;99531.19;5097018;27;46819;-82
2023/01/18 11:40:31;;;;;;;;;8.33;7.00;;;;;10.10;94.56;99518.75;5103910;27;45498;-82
2023/01/18 11:43:02;;;;;;;;;11.00;6.67;;;;;10.05;96.04;99531.25;5094973;27;44879;-83
2023/01/18 11:45:34;;;;;;;;;5.00;5.00;;;;;9.82;94.35;99525.69;5089565;27;45850;-82
2023/01/18 11:48:25;;;;;;;;;5.00;5.00;;;;;9.54;96.60;99530.75;5077051;27;48726;-83
2023/01/18 11:51:18;;;;;;;;;5.33;4.33;;;;;9.30;95.77;99518.03;5091162;27;45463;-83
2023/01/18 11:54:13;;;;;;;;;5.00;5.00;;;;;9.25;98.77;99532.41;5073653;27;45624;-83
2023/01/18 11:56:50;;;;;;;;;7.33;5.33;;;;;9.15;99.91;99532.13;5092368;27;45352;-81
2023/01/18 11:59:29;;;;;;;;;6.00;6.00;;;;;9.05;100.00;99537.28;5077089;27;47024;-80
2023/01/18 12:02:10;;;;;;;;;9.00;6.33;;;;;8.91;98.87;99531.97;5094584;27;45458;-81
2023/01/18 12:04:54;;;;;;;;;3.67;3.67;;;;;8.70;100.00;99522.31;5093629;27;45798;-81